Time;durP1;ratioP1;P1;durP2;ratioP2;P2;SDS_P1;SDS_P2;PMS_P1;PMS_P2;Temp;Humidity;BMP_temperature;BMP_pressure;BME280_temperature;BME280_humidity;BME280_pressure;Samples;Min_cycle;Max_cycle;Signal;HPM_P1;HPM_P2
2023/05/08 00:02:04;;;;;;;17.27;14.43;;;14.40;99.90;;;;;;5055594;28;20471;-85
2023/05/08 00:04:30;;;;;;;18.85;16.45;;;14.40;99.90;;;;;;5024758;28;20130;-85
2023/05/08 00:06:56;;;;;;;17.10;15.27;;;14.40;99.90;;;;;;5025077;28;20039;-86
2023/05/08 00:09:21;;;;;;;17.90;16.00;;;14.40;99.90;;;;;;5041598;28;20050;-86
2023/05/08 00:11:47;;;;;;;19.88;15.38;;;14.30;99.90;;;;;;5021125;28;20041;-84
2023/05/08 00:14:13;;;;;;;19.67;16.58;;;14.30;99.90;;;;;;5021770;28;20084;-85
2023/05/08 00:16:39;;;;;;;18.00;16.10;;;14.30;99.90;;;;;;5041154;28;20048;-86
2023/05/08 00:19:05;;;;;;;18.00;16.13;;;14.30;99.90;;;;;;5041268;28;20051;-85
2023/05/08 00:21:31;;;;;;;18.10;16.20;;;14.20;99.90;;;;;;5040592;28;20028;-85
2023/05/08 00:23:57;;;;;;;19.85;16.70;;;14.20;99.90;;;;;;5024471;28;20040;-86
2023/05/08 00:26:23;;;;;;;19.63;17.52;;;14.20;99.90;;;;;;5025084;28;20033;-86
2023/05/08 00:28:48;;;;;;;19.30;16.23;;;14.20;99.90;;;;;;5056070;28;20059;-85
2023/05/08 00:31:14;;;;;;;20.00;17.00;;;14.20;99.90;;;;;;5039604;28;20036;-85
2023/05/08 00:33:40;;;;;;;19.25;17.23;;;14.20;99.90;;;;;;5027699;28;20432;-85
2023/05/08 00:36:06;;;;;;;19.60;17.40;;;14.10;99.90;;;;;;5016801;28;20120;-85
2023/05/08 00:38:33;;;;;;;19.33;15.20;;;14.10;99.90;;;;;;5012985;28;20401;-84
2023/05/08 00:40:59;;;;;;;20.92;15.93;;;14.10;99.90;;;;;;5042486;28;20048;-85
2023/05/08 00:43:27;;;;;;;19.30;17.05;;;14.00;99.90;;;;;;5006975;28;20139;-86
2023/05/08 00:45:57;;;;;;;17.08;14.60;;;14.00;99.90;;;;;;5024837;28;20048;-85
2023/05/08 00:48:25;;;;;;;19.63;17.45;;;13.90;99.90;;;;;;5030491;28;20037;-86
2023/05/08 00:50:52;;;;;;;21.05;17.92;;;13.90;99.90;;;;;;5033625;28;20045;-86
2023/05/08 00:53:21;;;;;;;20.83;17.48;;;13.80;99.90;;;;;;5056086;28;20052;-86
2023/05/08 00:55:48;;;;;;;21.10;16.95;;;13.80;99.90;;;;;;5020643;28;20048;-86
2023/05/08 00:58:14;;;;;;;20.20;17.77;;;13.80;99.90;;;;;;5050652;28;20194;-86
2023/05/08 01:00:42;;;;;;;19.65;16.80;;;13.80;99.90;;;;;;5040171;28;20090;-84
2023/05/08 01:03:09;;;;;;;19.80;17.00;;;13.80;99.90;;;;;;5040356;28;20039;-85
2023/05/08 01:05:35;;;;;;;21.13;17.27;;;13.70;99.90;;;;;;5024028;28;20113;-85
2023/05/08 01:08:01;;;;;;;19.70;17.60;;;13.70;99.90;;;;;;5018380;28;20043;-85
2023/05/08 01:10:54;;;;;;;21.02;17.10;;;13.70;99.90;;;;;;5039117;28;20089;-86
2023/05/08 01:13:58;;;;;;;22.13;17.58;;;13.70;99.90;;;;;;5026881;28;20048;-86
2023/05/08 01:16:39;;;;;;;19.10;16.85;;;13.60;99.90;;;;;;5040665;28;20048;-85
2023/05/08 01:19:42;;;;;;;20.58;18.23;;;13.50;99.90;;;;;;5039908;28;20115;-85
2023/05/08 01:22:37;;;;;;;20.88;17.88;;;13.50;99.90;;;;;;5035256;28;20039;-85
2023/05/08 01:25:30;;;;;;;19.55;16.50;;;13.50;99.90;;;;;;5039857;28;20076;-86
2023/05/08 01:28:33;;;;;;;22.15;17.90;;;13.40;99.90;;;;;;5056401;28;20072;-86
2023/05/08 01:31:04;;;;;;;22.48;18.00;;;13.40;99.90;;;;;;5038585;28;20127;-86
2023/05/08 01:33:40;;;;;;;20.70;17.38;;;13.30;99.90;;;;;;5055571;28;20094;-86
2023/05/08 01:36:13;;;;;;;21.33;17.73;;;13.30;99.90;;;;;;5054485;28;20392;-86
2023/05/08 01:39:08;;;;;;;21.45;16.85;;;13.20;99.90;;;;;;5040244;28;20063;-85
2023/05/08 01:41:36;;;;;;;19.92;17.77;;;13.20;99.90;;;;;;5053829;28;20048;-84
2023/05/08 01:44:14;;;;;;;22.50;18.23;;;13.10;99.90;;;;;;5043390;28;20048;-86
2023/05/08 01:46:43;;;;;;;23.13;19.73;;;13.10;99.90;;;;;;5039911;28;20075;-86
2023/05/08 01:49:16;;;;;;;22.67;19.08;;;13.00;99.90;;;;;;5039451;28;20051;-85
2023/05/08 01:51:55;;;;;;;22.10;18.33;;;13.00;99.90;;;;;;5028475;28;20378;-85
2023/05/08 01:54:25;;;;;;;22.80;19.25;;;13.00;99.90;;;;;;5055792;28;20063;-85
2023/05/08 01:56:56;;;;;;;21.65;17.92;;;13.00;99.90;;;;;;5055977;28;20046;-85
2023/05/08 01:59:23;;;;;;;26.23;17.95;;;12.90;99.90;;;;;;5038431;28;20131;-85
2023/05/08 02:01:52;;;;;;;21.83;19.33;;;12.90;99.90;;;;;;5016256;28;20444;-85
2023/05/08 02:04:22;;;;;;;23.55;20.25;;;12.80;99.90;;;;;;5031967;28;20037;-85
2023/05/08 02:06:50;;;;;;;21.17;17.65;;;12.80;99.90;;;;;;5017354;28;20549;-86
2023/05/08 02:09:18;;;;;;;24.55;19.95;;;12.80;99.90;;;;;;5019649;28;20064;-86
2023/05/08 02:11:45;;;;;;;23.63;20.27;;;12.60;99.90;;;;;;5036023;28;20110;-86
2023/05/08 02:14:13;;;;;;;21.88;19.30;;;12.70;99.90;;;;;;5035955;28;20036;-85
2023/05/08 02:16:40;;;;;;;22.25;19.80;;;12.70;99.90;;;;;;4999620;28;20042;-84
2023/05/08 02:19:08;;;;;;;23.95;20.27;;;12.70;99.90;;;;;;5015673;28;20069;-85
2023/05/08 02:21:35;;;;;;;23.88;19.55;;;12.60;99.90;;;;;;5016141;28;20030;-85
2023/05/08 02:24:03;;;;;;;22.20;19.80;;;12.60;99.90;;;;;;5015902;28;20037;-85
2023/05/08 02:26:31;;;;;;;21.70;18.90;;;12.60;99.90;;;;;;5015978;28;20048;-85
2023/05/08 02:28:59;;;;;;;23.63;20.40;;;12.60;99.90;;;;;;5014139;28;20030;-85
2023/05/08 02:31:26;;;;;;;22.45;19.38;;;12.60;99.90;;;;;;5034028;28;20099;-85
2023/05/08 02:33:53;;;;;;;23.77;19.52;;;12.50;99.90;;;;;;5052100;28;20124;-85
2023/05/08 02:36:20;;;;;;;22.40;19.75;;;12.50;99.90;;;;;;5035454;28;20523;-86
2023/05/08 02:38:50;;;;;;;21.48;18.60;;;12.50;99.90;;;;;;5035138;28;20040;-85
2023/05/08 02:41:21;;;;;;;23.25;19.55;;;12.50;99.90;;;;;;5051756;28;20079;-85
2023/05/08 02:43:47;;;;;;;21.77;19.27;;;12.50;99.90;;;;;;5052336;28;20037;-86
2023/05/08 02:46:15;;;;;;;22.05;19.70;;;12.50;99.90;;;;;;5035755;28;20444;-85
2023/05/08 02:48:58;;;;;;;23.35;20.63;;;12.40;99.90;;;;;;5031093;28;20470;-86
2023/05/08 02:51:41;;;;;;;21.55;18.80;;;12.40;99.90;;;;;;5032373;28;20068;-85
2023/05/08 02:54:34;;;;;;;23.95;19.50;;;12.30;99.90;;;;;;5058730;28;20047;-84
2023/05/08 02:57:13;;;;;;;22.50;18.98;;;12.30;99.90;;;;;;5046987;28;20399;-86
2023/05/08 02:59:50;;;;;;;22.65;19.05;;;12.30;99.90;;;;;;5047831;28;20051;-86
2023/05/08 03:02:36;;;;;;;22.40;19.58;;;12.30;99.90;;;;;;5034954;28;20516;-84
2023/05/08 03:05:07;;;;;;;23.38;18.75;;;12.30;99.90;;;;;;5034715;28;20039;-85
2023/05/08 03:07:37;;;;;;;22.52;19.20;;;12.30;99.90;;;;;;5031343;28;20059;-85
2023/05/08 03:10:09;;;;;;;23.05;20.08;;;12.30;99.90;;;;;;5034717;28;20049;-84
2023/05/08 03:12:39;;;;;;;23.75;19.35;;;12.30;99.90;;;;;;5051743;28;20060;-85
2023/05/08 03:15:31;;;;;;;23.25;19.40;;;12.20;99.90;;;;;;5035119;28;20072;-85
2023/05/08 03:18:02;;;;;;;21.83;19.40;;;12.20;99.90;;;;;;5015775;28;20136;-84
2023/05/08 03:20:34;;;;;;;22.65;19.80;;;12.20;99.90;;;;;;5038938;28;20041;-85
2023/05/08 03:23:03;;;;;;;21.42;19.17;;;12.10;99.90;;;;;;5038159;28;20094;-85
2023/05/08 03:25:31;;;;;;;22.95;19.45;;;12.10;99.90;;;;;;5055498;28;20094;-85
2023/05/08 03:27:58;;;;;;;22.83;19.48;;;12.10;99.90;;;;;;5022824;28;20491;-85
2023/05/08 03:30:25;;;;;;;21.48;19.17;;;12.30;99.90;;;;;;5038946;28;20516;-85
2023/05/08 03:32:53;;;;;;;23.13;19.42;;;12.00;99.90;;;;;;5023001;28;20063;-84
2023/05/08 03:35:20;;;;;;;25.60;19.88;;;12.00;99.90;;;;;;5022490;28;20044;-85
2023/05/08 03:37:46;;;;;;;21.77;19.42;;;11.90;99.90;;;;;;5031935;28;20413;-87
2023/05/08 03:40:12;;;;;;;23.02;19.38;;;11.90;99.90;;;;;;5043881;28;20048;-85
2023/05/08 03:42:39;;;;;;;22.23;19.23;;;11.90;99.90;;;;;;5038960;28;20047;-86
2023/05/08 03:45:06;;;;;;;26.85;20.65;;;11.80;99.90;;;;;;5038730;28;20124;-84
2023/05/08 03:47:34;;;;;;;23.33;19.98;;;11.80;99.90;;;;;;5054617;28;20033;-85
2023/05/08 03:50:00;;;;;;;23.63;19.90;;;11.80;99.90;;;;;;5022406;28;20485;-85
2023/05/08 03:52:26;;;;;;;21.90;19.02;;;11.80;99.90;;;;;;5021992;28;20036;-85
2023/05/08 03:54:51;;;;;;;23.48;19.33;;;11.70;99.90;;;;;;5021489;28;20094;-84
2023/05/08 03:57:17;;;;;;;22.58;19.05;;;11.70;99.90;;;;;;5015194;28;20048;-85
2023/05/08 03:59:53;;;;;;;21.27;18.42;;;11.70;99.90;;;;;;5027957;28;20040;-86
2023/05/08 04:02:32;;;;;;;;;;;11.70;99.90;;;;;;5040807;28;20044;-85
2023/05/08 04:05:09;;;;;;;23.55;19.23;;;11.60;99.90;;;;;;5055200;28;19960;-85
2023/05/08 04:07:41;;;;;;;22.00;18.27;;;11.50;99.90;;;;;;5059681;28;20055;-84
2023/05/08 04:10:45;;;;;;;23.58;18.92;;;11.50;99.90;;;;;;5051257;28;20044;-85
2023/05/08 04:13:20;;;;;;;22.20;18.42;;;11.50;99.90;;;;;;5040843;28;20029;-85
2023/05/08 04:16:04;;;;;;;22.37;17.97;;;11.50;99.90;;;;;;5028921;28;20036;-85
2023/05/08 04:18:33;;;;;;;22.33;18.80;;;11.40;99.90;;;;;;5043921;28;20295;-85
2023/05/08 04:21:02;;;;;;;24.02;19.88;;;11.40;99.90;;;;;;5041917;28;20098;-85
2023/05/08 04:23:28;;;;;;;25.10;18.63;;;11.40;99.90;;;;;;5039121;28;20033;-84
2023/05/08 04:25:55;;;;;;;21.08;18.55;;;11.40;99.90;;;;;;5040997;28;20033;-85
2023/05/08 04:28:21;;;;;;;24.23;19.95;;;11.40;99.90;;;;;;5035706;28;20068;-84
2023/05/08 04:30:48;;;;;;;21.85;18.70;;;11.40;99.90;;;;;;5019955;28;20041;-84
2023/05/08 04:33:15;;;;;;;20.70;18.08;;;11.40;99.90;;;;;;5033446;28;20098;-86
2023/05/08 04:35:41;;;;;;;21.50;19.15;;;11.40;99.90;;;;;;5017619;28;20050;-86
2023/05/08 04:38:06;;;;;;;21.77;19.45;;;11.40;99.90;;;;;;5019267;28;20124;-86
2023/05/08 04:40:32;;;;;;;22.02;17.65;;;11.40;99.90;;;;;;5054580;28;20132;-86
2023/05/08 04:42:58;;;;;;;20.33;17.00;;;11.40;99.90;;;;;;5020360;28;20037;-86
2023/05/08 04:45:24;;;;;;;24.55;19.38;;;11.40;99.90;;;;;;5019561;28;20042;-85
2023/05/08 04:47:49;;;;;;;20.77;18.23;;;11.40;99.90;;;;;;5038135;28;20029;-85
2023/05/08 04:50:15;;;;;;;22.45;18.13;;;11.40;99.90;;;;;;5057211;28;20192;-85
2023/05/08 04:52:41;;;;;;;21.40;17.35;;;11.40;99.90;;;;;;5025379;28;20037;-87
2023/05/08 04:55:07;;;;;;;20.45;17.50;;;11.40;99.90;;;;;;5043354;28;20484;-83
2023/05/08 04:57:33;;;;;;;21.77;17.65;;;11.40;99.90;;;;;;5048647;28;20079;-84
2023/05/08 04:59:59;;;;;;;19.33;16.88;;;11.40;99.90;;;;;;5028147;28;20123;-85
2023/05/08 05:02:25;;;;;;;21.60;18.02;;;11.50;99.90;;;;;;5019605;28;20481;-86
2023/05/08 05:04:51;;;;;;;20.88;17.98;;;11.50;99.90;;;;;;5055139;28;20044;-85
2023/05/08 05:07:17;;;;;;;19.70;16.55;;;11.50;99.90;;;;;;5056309;28;20041;-85
2023/05/08 05:09:42;;;;;;;19.50;16.52;;;11.60;99.90;;;;;;4995910;28;20049;-85
2023/05/08 05:12:08;;;;;;;20.75;17.50;;;11.60;99.90;;;;;;5037157;28;20462;-85
2023/05/08 05:14:34;;;;;;;19.77;17.02;;;11.60;99.90;;;;;;5033109;28;20033;-84
2023/05/08 05:16:59;;;;;;;21.55;17.60;;;11.60;99.90;;;;;;5036921;28;20079;-85
2023/05/08 05:19:26;;;;;;;19.13;15.98;;;11.70;99.90;;;;;;5041006;28;20497;-85
2023/05/08 05:21:51;;;;;;;19.67;17.45;;;11.70;99.90;;;;;;5017297;28;20116;-85
2023/05/08 05:24:17;;;;;;;18.85;16.25;;;11.70;99.90;;;;;;5040038;28;20095;-84
2023/05/08 05:26:43;;;;;;;18.92;15.82;;;11.80;99.90;;;;;;5024454;28;20041;-85
2023/05/08 05:29:08;;;;;;;20.73;16.20;;;11.80;99.90;;;;;;5043440;28;20064;-85
2023/05/08 05:31:34;;;;;;;23.88;16.52;;;11.80;99.90;;;;;;5027400;28;20041;-85
2023/05/08 05:34:00;;;;;;;21.55;16.52;;;11.90;99.90;;;;;;5032800;28;20029;-84
2023/05/08 05:36:25;;;;;;;18.02;16.05;;;11.90;99.90;;;;;;5050463;28;20130;-84
2023/05/08 05:38:51;;;;;;;17.20;15.02;;;12.00;99.90;;;;;;5011907;28;20044;-85
2023/05/08 05:41:17;;;;;;;18.58;15.75;;;12.00;99.90;;;;;;5023252;28;20076;-85
2023/05/08 05:43:43;;;;;;;16.73;14.65;;;12.00;99.90;;;;;;5034641;28;20714;-86
2023/05/08 05:46:09;;;;;;;19.50;15.25;;;12.10;99.90;;;;;;5035621;28;20119;-85
2023/05/08 05:48:35;;;;;;;18.00;15.32;;;12.10;99.90;;;;;;5052030;28;20045;-86
2023/05/08 05:51:01;;;;;;;16.65;14.18;;;12.20;99.90;;;;;;5035155;28;20119;-85
2023/05/08 05:53:27;;;;;;;19.58;15.35;;;12.20;99.90;;;;;;5043279;28;20040;-86
2023/05/08 05:55:53;;;;;;;18.85;16.20;;;12.30;99.90;;;;;;5051797;28;20048;-83
2023/05/08 05:58:19;;;;;;;15.73;14.02;;;12.30;99.90;;;;;;5035522;28;20044;-85
2023/05/08 06:00:46;;;;;;;17.17;15.18;;;12.30;99.90;;;;;;5034278;28;20053;-84
2023/05/08 06:03:12;;;;;;;16.23;14.52;;;12.30;99.90;;;;;;5024525;28;20041;-85
2023/05/08 06:05:39;;;;;;;16.13;13.80;;;12.30;99.90;;;;;;5030361;28;20436;-85
2023/05/08 06:08:06;;;;;;;15.13;13.30;;;12.30;99.90;;;;;;5025132;28;20485;-85
2023/05/08 06:10:31;;;;;;;15.95;13.07;;;12.30;99.90;;;;;;5034405;28;20052;-85
2023/05/08 06:12:57;;;;;;;16.85;13.95;;;12.30;99.90;;;;;;5051990;28;20170;-86
2023/05/08 06:15:23;;;;;;;16.98;14.98;;;12.40;99.90;;;;;;5033075;28;20037;-85
2023/05/08 06:17:48;;;;;;;16.77;14.43;;;12.40;99.90;;;;;;5001276;28;20409;-85
2023/05/08 06:20:14;;;;;;;15.27;13.68;;;12.40;99.90;;;;;;5013120;28;20034;-85
2023/05/08 06:22:40;;;;;;;18.73;15.27;;;12.50;99.90;;;;;;5015686;28;20044;-85
2023/05/08 06:25:07;;;;;;;18.20;13.15;;;12.70;99.90;;;;;;5016455;28;20034;-85
2023/05/08 06:27:35;;;;;;;15.77;13.52;;;12.90;99.90;;;;;;5025191;28;20033;-85
2023/05/08 06:30:03;;;;;;;16.45;13.85;;;13.00;99.90;;;;;;5035515;28;20037;-85
2023/05/08 06:32:29;;;;;;;15.60;14.00;;;13.10;99.90;;;;;;5049766;28;20030;-84
2023/05/08 06:34:55;;;;;;;14.80;13.20;;;13.30;99.90;;;;;;5053245;28;20055;-86
2023/05/08 06:37:21;;;;;;;17.33;14.88;;;13.40;99.90;;;;;;5044238;28;20044;-86
2023/05/08 06:39:47;;;;;;;15.77;14.02;;;13.40;99.90;;;;;;5031765;28;20041;-85
2023/05/08 06:42:13;;;;;;;14.80;12.68;;;13.50;99.90;;;;;;5036310;28;20124;-85
2023/05/08 06:44:39;;;;;;;15.50;12.43;;;13.60;99.90;;;;;;5035972;28;20461;-85
2023/05/08 06:47:05;;;;;;;14.77;13.23;;;13.70;99.90;;;;;;5019683;28;20484;-86
2023/05/08 06:49:31;;;;;;;15.48;13.30;;;13.70;99.90;;;;;;5052590;28;20160;-85
2023/05/08 06:51:57;;;;;;;16.80;14.25;;;13.60;99.90;;;;;;5015696;28;20065;-86
2023/05/08 06:54:23;;;;;;;14.15;12.30;;;13.60;99.90;;;;;;5031779;28;20041;-86
2023/05/08 06:56:48;;;;;;;18.08;15.52;;;13.60;99.90;;;;;;5033716;28;20033;-86
2023/05/08 06:59:14;;;;;;;14.90;13.18;;;13.80;99.90;;;;;;5035003;28;20040;-86
2023/05/08 07:01:41;;;;;;;19.17;14.75;;;13.90;99.90;;;;;;5014852;28;20057;-86
2023/05/08 07:04:07;;;;;;;16.20;14.38;;;14.00;99.90;;;;;;5032301;28;20095;-86
2023/05/08 07:06:33;;;;;;;19.50;14.35;;;14.00;99.90;;;;;;5031896;28;20474;-86
2023/05/08 07:08:59;;;;;;;16.55;14.32;;;14.00;99.90;;;;;;5031550;28;20044;-85
2023/05/08 07:11:25;;;;;;;17.90;16.05;;;14.10;99.90;;;;;;5050644;28;20041;-85
2023/05/08 07:13:51;;;;;;;17.63;14.35;;;14.00;99.90;;;;;;5050632;28;20044;-85
2023/05/08 07:16:17;;;;;;;18.92;14.77;;;14.00;99.90;;;;;;5022494;28;20490;-85
2023/05/08 07:18:43;;;;;;;15.40;13.57;;;14.00;99.90;;;;;;5017077;28;20052;-84
2023/05/08 07:21:09;;;;;;;17.73;14.73;;;14.00;99.90;;;;;;5052382;28;20126;-84
2023/05/08 07:23:35;;;;;;;17.30;14.88;;;14.00;99.90;;;;;;5035288;28;20080;-85
2023/05/08 07:26:01;;;;;;;19.17;15.43;;;14.00;99.90;;;;;;5051981;28;20044;-86
2023/05/08 07:28:27;;;;;;;16.80;15.00;;;14.00;99.90;;;;;;5018793;28;20477;-86
2023/05/08 07:30:53;;;;;;;16.58;14.65;;;14.10;99.90;;;;;;5018856;28;20182;-85
2023/05/08 07:33:18;;;;;;;18.83;15.18;;;14.20;99.90;;;;;;5032328;28;20736;-84
2023/05/08 07:35:44;;;;;;;16.48;14.70;;;14.30;99.90;;;;;;5017725;28;20117;-85
2023/05/08 07:38:10;;;;;;;17.33;15.52;;;14.50;99.90;;;;;;5027424;28;20099;-86
2023/05/08 07:40:36;;;;;;;16.85;15.13;;;14.70;99.90;;;;;;5033396;28;20049;-86
2023/05/08 07:43:02;;;;;;;18.02;15.10;;;14.90;99.90;;;;;;5026591;28;20049;-85
2023/05/08 07:45:28;;;;;;;16.20;14.45;;;15.10;99.90;;;;;;5054482;28;20040;-84
2023/05/08 07:47:56;;;;;;;19.70;15.25;;;15.20;99.90;;;;;;5038142;28;20113;-84
2023/05/08 07:50:23;;;;;;;17.85;15.95;;;15.30;99.90;;;;;;5052232;28;20041;-84
2023/05/08 07:52:49;;;;;;;16.38;14.65;;;15.40;99.90;;;;;;5018320;28;20068;-85
2023/05/08 07:55:15;;;;;;;17.13;15.43;;;15.40;99.90;;;;;;5033597;28;20073;-86
2023/05/08 07:57:42;;;;;;;18.15;16.13;;;15.60;99.90;;;;;;5023772;28;20550;-85
2023/05/08 08:00:11;;;;;;;16.13;14.35;;;15.70;99.90;;;;;;4998683;28;20034;-85
2023/05/08 08:02:37;;;;;;;17.40;15.60;;;15.80;99.90;;;;;;5008802;28;20076;-86
2023/05/08 08:05:04;;;;;;;17.30;15.45;;;16.00;99.90;;;;;;5032819;28;20127;-85
2023/05/08 08:07:31;;;;;;;15.68;13.75;;;16.00;99.90;;;;;;5027705;28;20040;-86
2023/05/08 08:09:58;;;;;;;16.25;14.65;;;16.10;99.90;;;;;;5051948;28;20044;-86
2023/05/08 08:12:23;;;;;;;17.50;15.55;;;16.20;99.90;;;;;;5019036;28;20036;-85
2023/05/08 08:14:49;;;;;;;15.52;13.63;;;16.20;99.90;;;;;;5032104;28;20097;-86
2023/05/08 08:17:15;;;;;;;14.68;13.15;;;16.20;99.90;;;;;;5033585;28;20037;-86
2023/05/08 08:19:41;;;;;;;17.38;15.50;;;16.30;99.90;;;;;;5031934;28;20182;-85
2023/05/08 08:22:06;;;;;;;17.27;15.57;;;16.30;99.90;;;;;;5052176;28;20028;-86
2023/05/08 08:24:32;;;;;;;16.23;14.63;;;16.30;99.90;;;;;;5038260;28;20489;-85
2023/05/08 08:26:58;;;;;;;18.00;15.23;;;16.30;99.90;;;;;;5034197;28;20032;-86
2023/05/08 08:29:24;;;;;;;18.45;15.98;;;16.30;99.90;;;;;;5024375;28;20110;-86
2023/05/08 08:31:50;;;;;;;19.15;16.73;;;16.30;99.90;;;;;;5034691;28;20032;-86
2023/05/08 08:34:16;;;;;;;17.73;15.90;;;16.40;99.90;;;;;;5031328;28;20033;-85
2023/05/08 08:36:42;;;;;;;18.52;16.63;;;16.50;99.90;;;;;;5035534;28;20041;-86
2023/05/08 08:39:07;;;;;;;17.58;15.77;;;16.60;99.90;;;;;;5014371;28;20032;-86
2023/05/08 08:41:33;;;;;;;19.42;15.88;;;16.60;99.90;;;;;;5036598;28;20512;-86
2023/05/08 08:43:59;;;;;;;17.67;15.70;;;16.70;99.90;;;;;;5026430;28;20098;-86
2023/05/08 08:46:26;;;;;;;18.38;15.90;;;16.80;99.90;;;;;;5029139;28;20035;-86
2023/05/08 08:48:54;;;;;;;16.38;14.27;;;17.00;99.90;;;;;;5034458;28;20040;-85
2023/05/08 08:51:51;;;;;;;17.73;15.82;;;17.00;99.90;;;;;;5014967;28;20041;-86
2023/05/08 08:54:22;;;;;;;16.40;14.73;;;17.20;99.90;;;;;;5029837;28;20048;-86
2023/05/08 08:56:49;;;;;;;17.27;15.48;;;17.30;99.90;;;;;;5025761;28;20048;-85
2023/05/08 08:59:16;;;;;;;16.95;15.15;;;17.40;99.90;;;;;;5049188;28;20072;-85
2023/05/08 09:01:46;;;;;;;17.13;15.32;;;17.60;99.90;;;;;;5065904;28;20088;-86
2023/05/08 09:04:12;;;;;;;17.00;15.30;;;17.70;99.90;;;;;;5045345;28;20501;-86
2023/05/08 09:06:40;;;;;;;17.20;15.48;;;17.10;99.90;;;;;;5055003;28;20124;-86
2023/05/08 09:09:05;;;;;;;17.05;15.35;;;18.00;99.90;;;;;;5062359;28;20450;-87
2023/05/08 09:11:31;;;;;;;17.00;14.45;;;18.10;99.90;;;;;;5040271;28;20076;-86
2023/05/08 09:13:58;;;;;;;17.40;15.18;;;18.20;99.90;;;;;;5038351;28;20388;-86
2023/05/08 09:16:26;;;;;;;15.18;13.57;;;18.40;99.90;;;;;;5029408;28;20041;-86
2023/05/08 09:18:51;;;;;;;14.52;12.98;;;18.60;99.90;;;;;;5038629;28;20037;-87
2023/05/08 09:21:18;;;;;;;21.33;17.40;;;18.80;99.90;;;;;;5007826;28;20499;-87
2023/05/08 09:23:57;;;;;;;19.80;16.13;;;18.90;99.90;;;;;;5036027;28;20040;-86
2023/05/08 09:26:40;;;;;;;17.42;15.52;;;19.00;99.90;;;;;;5028817;28;20424;-86
2023/05/08 09:29:16;;;;;;;16.27;14.57;;;19.10;99.90;;;;;;5014178;28;20036;-87
2023/05/08 09:31:47;;;;;;;18.92;16.60;;;19.30;99.90;;;;;;5044026;28;20037;-87
2023/05/08 09:34:28;;;;;;;19.38;16.83;;;19.40;99.90;;;;;;5035442;28;20067;-87
2023/05/08 09:36:55;;;;;;;16.73;15.13;;;19.50;99.90;;;;;;5032587;28;20044;-87
2023/05/08 09:39:24;;;;;;;16.42;14.82;;;19.50;99.90;;;;;;5050468;28;20036;-87
2023/05/08 09:42:04;;;;;;;16.63;14.23;;;19.60;99.90;;;;;;5030184;28;20374;-87
2023/05/08 09:44:51;;;;;;;16.40;14.68;;;19.60;99.90;;;;;;5053549;28;20035;-86
2023/05/08 09:47:19;;;;;;;;;;;19.60;99.90;;;;;;5030554;28;20539;-86
2023/05/08 09:50:04;;;;;;;16.80;15.20;;;19.70;99.90;;;;;;5033207;28;20368;-86
2023/05/08 09:52:31;;;;;;;16.75;15.05;;;19.70;99.90;;;;;;5049537;28;20131;-86
2023/05/08 09:55:02;;;;;;;16.05;14.23;;;19.80;99.90;;;;;;5043361;28;20075;-86
2023/05/08 09:57:30;;;;;;;15.27;13.75;;;19.80;99.90;;;;;;5042915;28;20123;-85
2023/05/08 10:00:08;;;;;;;16.80;15.10;;;19.90;99.90;;;;;;5048305;28;20568;-86
2023/05/08 10:02:36;;;;;;;18.17;16.27;;;20.00;99.90;;;;;;5043549;28;20036;-87
2023/05/08 10:05:04;;;;;;;16.98;15.25;;;20.10;99.90;;;;;;5028234;28;20036;-87
2023/05/08 10:07:32;;;;;;;17.70;15.98;;;20.10;99.90;;;;;;5050558;28;20043;-87
2023/05/08 10:10:03;;;;;;;14.93;13.35;;;20.20;99.90;;;;;;5028990;28;20036;-87
2023/05/08 10:12:29;;;;;;;17.27;15.48;;;20.20;99.90;;;;;;5049990;28;20039;-86
2023/05/08 10:14:56;;;;;;;18.80;16.90;;;20.20;99.90;;;;;;5055230;28;20055;-85
2023/05/08 10:17:45;;;;;;;14.25;12.70;;;20.20;99.90;;;;;;5035924;28;20477;-87
2023/05/08 10:20:14;;;;;;;15.93;14.25;;;20.20;99.90;;;;;;5026507;28;20048;-87
2023/05/08 10:22:42;;;;;;;17.10;15.40;;;20.20;99.90;;;;;;5025085;28;20115;-87
2023/05/08 10:25:16;;;;;;;16.13;14.23;;;20.20;99.90;;;;;;5033926;28;20119;-88
2023/05/08 10:27:53;;;;;;;15.90;14.10;;;20.30;99.90;;;;;;5049271;28;20036;-87
2023/05/08 10:30:23;;;;;;;18.05;16.20;;;20.40;99.90;;;;;;5038177;28;20036;-87
2023/05/08 10:32:55;;;;;;;17.50;14.88;;;20.30;99.90;;;;;;5044559;28;20476;-88
2023/05/08 10:35:54;;;;;;;;;;;;;;;;;;;;;
2023/05/08 10:38:21;;;;;;;17.10;15.30;;;20.60;99.90;;;;;;5049508;28;20483;-88
2023/05/08 10:40:49;;;;;;;17.73;15.82;;;20.70;99.90;;;;;;5036448;28;20049;-88
2023/05/08 10:43:16;;;;;;;18.98;17.00;;;20.80;99.90;;;;;;5023981;28;20033;-87
2023/05/08 10:45:44;;;;;;;18.73;15.50;;;20.90;99.90;;;;;;5024559;28;20431;-87
2023/05/08 10:48:16;;;;;;;15.73;13.43;;;20.90;99.90;;;;;;5024776;28;20484;-88
2023/05/08 10:51:00;;;;;;;17.88;15.85;;;21.00;99.90;;;;;;5039147;28;20082;-88
2023/05/08 10:53:50;;;;;;;16.15;14.00;;;21.00;99.90;;;;;;5032313;28;20036;-88
2023/05/08 10:56:16;;;;;;;20.23;15.98;;;21.00;99.90;;;;;;5052831;28;20373;-89
2023/05/08 10:58:42;;;;;;;20.23;17.45;;;20.90;99.90;;;;;;5036849;28;20045;-90
2023/05/08 11:01:07;;;;;;;16.38;14.68;;;20.90;99.90;;;;;;5036306;28;20048;-89
2023/05/08 11:03:49;;;;;;;17.13;15.10;;;20.90;99.90;;;;;;5034521;28;20033;-90
2023/05/08 11:06:15;;;;;;;16.58;13.40;;;20.90;99.90;;;;;;5033508;28;20042;-88
2023/05/08 11:08:53;;;;;;;18.45;16.20;;;21.00;99.90;;;;;;5038373;28;20041;-88
2023/05/08 11:11:27;;;;;;;16.40;14.25;;;21.00;99.90;;;;;;5054596;28;20086;-88
2023/05/08 11:14:05;;;;;;;16.05;14.45;;;21.10;99.90;;;;;;5026931;28;20041;-88
2023/05/08 11:16:53;;;;;;;20.50;15.95;;;21.10;99.90;;;;;;5054858;28;20040;-88
2023/05/08 11:19:25;;;;;;;18.92;17.02;;;21.20;99.90;;;;;;5031809;28;20040;-88
2023/05/08 11:22:09;;;;;;;18.33;16.52;;;21.30;99.90;;;;;;5057202;28;20037;-88
2023/05/08 11:24:37;;;;;;;15.25;13.65;;;21.30;99.90;;;;;;5046108;28;20047;-86
2023/05/08 11:27:03;;;;;;;17.83;15.93;;;21.40;99.90;;;;;;5041015;28;20032;-88
2023/05/08 11:29:28;;;;;;;19.67;17.70;;;21.60;99.90;;;;;;5031677;28;20040;-88
2023/05/08 11:31:55;;;;;;;17.00;14.75;;;21.60;99.90;;;;;;5034525;28;20032;-88
2023/05/08 11:34:46;;;;;;;19.08;17.05;;;21.60;99.90;;;;;;5036936;28;20033;-88
2023/05/08 11:37:23;;;;;;;19.73;17.65;;;21.50;99.90;;;;;;5032874;28;20028;-88
2023/05/08 11:39:49;;;;;;;20.48;18.35;;;21.50;99.90;;;;;;5058144;28;20040;-89
2023/05/08 11:42:24;;;;;;;21.02;18.75;;;21.50;99.90;;;;;;5041772;28;20125;-88
2023/05/08 11:45:12;;;;;;;20.83;18.60;;;21.50;99.90;;;;;;5055391;28;20040;-88
2023/05/08 11:47:40;;;;;;;19.90;16.60;;;21.60;99.90;;;;;;5029212;28;20040;-89
2023/05/08 11:50:10;;;;;;;19.45;17.38;;;21.70;99.90;;;;;;5032846;28;20036;-88
2023/05/08 11:52:38;;;;;;;19.52;17.42;;;21.90;99.90;;;;;;5034406;28;20048;-86
2023/05/08 11:55:06;;;;;;;18.80;16.55;;;22.00;99.90;;;;;;5052526;28;20166;-89
2023/05/08 11:57:32;;;;;;;22.15;18.55;;;22.10;99.90;;;;;;5037002;28;20379;-89
2023/05/08 12:00:06;;;;;;;19.70;17.30;;;22.30;99.90;;;;;;5047877;28;20122;-89
2023/05/08 12:02:40;;;;;;;17.15;15.35;;;22.50;99.90;;;;;;5044324;28;20053;-89
2023/05/08 12:05:08;;;;;;;19.45;16.48;;;22.70;99.90;;;;;;5030943;28;20040;-88
2023/05/08 12:07:47;;;;;;;17.13;15.32;;;22.90;99.90;;;;;;5037543;28;20036;-89
2023/05/08 12:10:13;;;;;;;25.50;16.23;;;23.00;99.90;;;;;;5034574;28;20045;-89
2023/05/08 12:12:41;;;;;;;18.48;16.00;;;23.00;99.90;;;;;;5045173;28;20051;-90
2023/05/08 12:15:14;;;;;;;15.52;13.30;;;22.90;99.90;;;;;;5056298;28;20045;-89
2023/05/08 12:17:41;;;;;;;18.88;15.82;;;22.80;99.90;;;;;;5025002;28;20040;-90
2023/05/08 12:20:18;;;;;;;19.60;16.60;;;22.70;99.90;;;;;;5033397;28;20493;-89
2023/05/08 12:22:51;;;;;;;20.70;18.05;;;22.50;99.90;;;;;;5041294;28;20044;-89
2023/05/08 12:25:17;;;;;;;21.88;18.77;;;22.40;99.90;;;;;;5042154;28;20510;-89
2023/05/08 12:27:44;;;;;;;19.17;17.08;;;22.40;99.90;;;;;;5059136;28;20036;-89
2023/05/08 12:30:12;;;;;;;22.95;19.30;;;22.40;99.90;;;;;;5033378;28;20098;-88
2023/05/08 12:32:41;;;;;;;18.13;16.15;;;22.50;99.90;;;;;;5035514;28;20036;-88
2023/05/08 12:35:08;;;;;;;21.08;17.73;;;22.50;99.90;;;;;;5051104;28;20045;-88
2023/05/08 12:37:35;;;;;;;22.85;20.27;;;22.50;99.90;;;;;;5079164;28;20388;-89
2023/05/08 12:40:03;;;;;;;22.90;20.42;;;22.60;99.90;;;;;;5058485;28;20365;-90
2023/05/08 12:42:41;;;;;;;23.48;20.98;;;22.60;99.90;;;;;;5043164;28;20116;-90